ADDS METAR Data INFO
IDs: Format: Raw Decoded Include TAF

Data at: 2039 UTC 20 Jul 2018

KRCZ 202035Z AUTO 10010G14KT 10SM CLR 28/21 A2996 RMK AO2 T02810206
KRCZ 202015Z AUTO 09007KT 10SM SCT037 SCT042 28/21 A2997 RMK AO2 T02830206
KRCZ 201955Z AUTO 07005KT 10SM SCT039 29/20 A2997 RMK AO2 T02880200
KRCZ 201935Z AUTO 10010KT 10SM CLR 29/20 A2998 RMK AO2 T02880195
KRCZ 201915Z AUTO 08005KT 10SM CLR 29/19 A2998 RMK AO2 T02900189
KRCZ 201855Z AUTO 06008G14KT 030V090 10SM CLR 29/18 A2999 RMK AO2 T02890180
KRCZ 201835Z AUTO 06008KT 030V090 10SM CLR 29/18 A3000 RMK AO2 T02860181
KRCZ 201755Z AUTO 05008KT 020V090 10SM CLR 29/19 A3001 RMK AO2 T02880189 10290 20228
KRCZ 201735Z AUTO 06004G08KT 10SM SCT038 SCT046 28/19 A3002 RMK AO2 T02820192
KRCZ 201715Z AUTO 08008KT 10SM SCT038 SCT044 29/19 A3003 RMK AO2 T02900191
KRCZ 201655Z AUTO 10008KT 10SM CLR 28/19 A3003 RMK AO2 T02830191
KRCZ 201635Z AUTO 08010KT 10SM CLR 28/19 A3003 RMK AO2 T02830188
KRCZ 201615Z AUTO 07007KT 10SM CLR 28/20 A3004 RMK AO2 T02790195
KRCZ 201555Z AUTO 06005KT 10SM SCT024 SCT028 27/21 A3005 RMK AO2 T02720210
KRCZ 201535Z AUTO 06005KT 10SM BKN020 SCT027 26/22 A3005 RMK AO2 T02620217
KRCZ 201515Z AUTO 07004KT 10SM SCT018 26/22 A3005 RMK AO2 T02590220
KRCZ 201455Z AUTO 06006KT 10SM SCT016 26/22 A3004 RMK AO2 T02560218
KRCZ 201435Z AUTO 06007KT 030V090 10SM CLR 25/22 A3005 RMK AO2 T02520217
KRCZ 201415Z AUTO 03006KT 10SM CLR 25/22 A3005 RMK AO2 T02470217
KRCZ 201355Z AUTO 07005KT 10SM CLR 24/21 A3005 RMK AO2 T02420214
KRCZ 201335Z AUTO 09006KT 10SM CLR 24/21 A3005 RMK AO2 T02400212
KRCZ 201255Z AUTO 08005KT 10SM CLR 24/21 A3005 RMK AO2 T02350210
KRCZ 201235Z AUTO 08005KT 10SM CLR 23/21 A3005 RMK AO2 T02310209
KRCZ 201215Z AUTO 09005KT 10SM CLR 23/21 A3005 RMK AO2 T02300210
KRCZ 201155Z AUTO 09007KT 10SM CLR 23/21 A3004 RMK AO2 T02280210 10235 20212
KRCZ 201135Z AUTO 09008KT 10SM CLR 23/21 A3003 RMK AO2 T02280208
KRCZ 201115Z AUTO 09006KT 10SM CLR 23/21 A3003 RMK AO2 T02250207
KRCZ 201055Z AUTO 08004KT 10SM CLR 22/21 A3003 RMK AO2 T02200206
KRCZ 201035Z AUTO 07005KT 10SM CLR 22/21 A3003 RMK AO2 T02150205
KRCZ 201015Z AUTO 06003KT 10SM CLR 21/20 A3003 RMK AO2 T02130202
KRCZ 200955Z AUTO 08006KT 10SM CLR 22/20 A3003 RMK AO2 T02150204
KRCZ 200935Z AUTO 09005KT 10SM SCT001 22/21 A3003 RMK AO2 T02150207
KRCZ 200915Z AUTO 08005KT 10SM SCT001 SCT007 21/21 A3003 RMK AO2 T02130207
KRCZ 200855Z AUTO 00000KT 10SM CLR 22/21 A3003 RMK AO2 T02150207
KRCZ 200835Z AUTO 00000KT 10SM CLR 22/21 A3003 RMK AO2 T02170207
KRCZ 200815Z AUTO 07005KT 10SM CLR 22/21 A3003 RMK AO2 T02200208
KRCZ 200755Z AUTO 08004KT 10SM CLR 22/21 A3003 RMK AO2 T02210208
KRCZ 200735Z AUTO 09005KT 10SM CLR 22/21 A3002 RMK AO2 T02220207
KRCZ 200715Z AUTO 09005KT 10SM CLR 23/21 A3003 RMK AO2 T02250206
KRCZ 200655Z AUTO 08004KT 10SM CLR 23/21 A3003 RMK AO2 T02280205
KRCZ 200635Z AUTO 10005KT 10SM CLR 23/21 A3003 RMK AO2 T02300205
KRCZ 200615Z AUTO 10006KT 10SM CLR 23/20 A3003 RMK AO2 T02310203
KRCZ 200555Z AUTO 11007KT 10SM CLR 24/20 A3003 RMK AO2 T02350200 10290 20235 403220204
KRCZ 200535Z AUTO 11007KT 10SM CLR 24/20 A3004 RMK AO2 T02380200
KRCZ 200515Z AUTO 10003KT 10SM CLR 24/20 A3005 RMK AO2 T02360195
KRCZ 200455Z AUTO 11004KT 10SM CLR 24/19 A3005 RMK AO2 T02380193
KRCZ 200435Z AUTO 00000KT 10SM CLR 24/19 A3005 RMK AO2 T02390192
KRCZ 200415Z AUTO 11003KT 10SM SCT110 24/19 A3005 RMK AO2 T02400188
KRCZ 200355Z AUTO 12003KT 10SM CLR 24/19 A3004 RMK AO2 T02410185
KRCZ 200335Z AUTO 12004KT 10SM CLR 24/19 A3004 RMK AO2 T02410185
KRCZ 200315Z AUTO 00000KT 10SM CLR 25/18 A3004 RMK AO2 T02480176
KRCZ 200255Z AUTO 14004KT 10SM CLR 25/18 A3004 RMK AO2 T02540175
KRCZ 200215Z AUTO 00000KT 10SM CLR 26/17 A3003 RMK AO2 T02570171
KRCZ 200155Z AUTO 09003KT 10SM CLR 27/17 A3003 RMK AO2 T02660168
KRCZ 200135Z AUTO 10003KT 10SM SCT075 27/17 A3003 RMK AO2 T02720165
KRCZ 200115Z AUTO 10004KT 10SM BKN075 28/17 A3002 RMK AO2 T02800165
KRCZ 200055Z AUTO 11006KT 10SM SCT075 SCT095 28/17 A3002 RMK AO2 T02800165
KRCZ 200035Z AUTO 09004KT 10SM SCT075 SCT085 29/16 A3002 RMK AO2 T02850161
KRCZ 200015Z AUTO 09005KT 10SM SCT075 SCT085 29/16 A3001 RMK AO2 T02870164
KRCZ 192355Z AUTO 08004KT 10SM SCT080 29/16 A3001 RMK AO2 T02900162 10322 20290
KRCZ 192335Z AUTO 08005KT 10SM SCT080 29/16 A3000 RMK AO2 T02930160
KRCZ 192315Z AUTO 08006KT 10SM SCT085 30/16 A3000 RMK AO2 T02970159
KRCZ 192255Z AUTO 08004KT 10SM SCT085 30/16 A3000 RMK AO2 T03000156
KRCZ 192235Z AUTO 10007KT 10SM SCT085 30/15 A2999 RMK AO2 T03010154
KRCZ 192215Z AUTO 10004KT 10SM CLR 31/16 A2999 RMK AO2 T03060157
KRCZ 192155Z AUTO 10009KT 10SM CLR 31/16 A2999 RMK AO2 T03100158
KRCZ 192135Z AUTO 10006KT 10SM CLR 31/15 A2999 RMK AO2 T03130153
KRCZ 192115Z AUTO 04004KT 10SM CLR 32/15 A2999 RMK AO2 T03160153
KRCZ 192055Z AUTO 12007KT 10SM CLR 32/15 A3000 RMK AO2 T03180152
KRCZ 192035Z AUTO 09006KT 10SM CLR 32/15 A3000 RMK AO2 T03190153
KRCZ 192015Z AUTO 04004KT 10SM CLR 32/15 A3000 RMK AO2 T03180152
KRCZ 191955Z AUTO 07003KT 10SM CLR 32/16 A3000 RMK AO2 T03170155
KRCZ 191935Z AUTO 09005KT 10SM CLR 32/16 A3001 RMK AO2 T03150158
KRCZ 191915Z AUTO 07006KT 10SM CLR 32/16 A3002 RMK AO2 T03170158
KRCZ 191855Z AUTO 10007KT 10SM CLR 32/16 A3003 RMK AO2 T03150159
KRCZ 191835Z AUTO 10007KT 10SM CLR 31/16 A3004 RMK AO2 T03120161
KRCZ 191815Z AUTO 09004KT 10SM CLR 31/16 A3004 RMK AO2 T03100159
KRCZ 191755Z AUTO 12007KT 10SM CLR 31/16 A3004 RMK AO2 T03050156 10314 20221
KRCZ 191735Z AUTO 07006KT 10SM CLR 31/15 A3004 RMK AO2 T03070153
KRCZ 191715Z AUTO 07005KT 10SM CLR 31/15 A3004 RMK AO2 T03090154
KRCZ 191655Z AUTO 07007KT 020V120 10SM CLR 30/16 A3005 RMK AO2 T03020156
KRCZ 191635Z AUTO 08006KT 10SM CLR 30/16 A3005 RMK AO2 T03010162
KRCZ 191615Z AUTO 09007KT 10SM CLR 29/16 A3005 RMK AO2 T02930164
KRCZ 191555Z AUTO 06008KT 10SM CLR 29/17 A3006 RMK AO2 T02930171
KRCZ 191535Z AUTO 09008KT 10SM CLR 29/17 A3006 RMK AO2 T02880174
KRCZ 191515Z AUTO 09009KT 10SM CLR 28/17 A3006 RMK AO2 T02820173
KRCZ 191455Z AUTO 12008KT 10SM CLR 28/18 A3007 RMK AO2 T02820180
KRCZ 191435Z AUTO 08008KT 10SM CLR 28/18 A3006 RMK AO2 T02770178
KRCZ 191415Z AUTO 08005KT 10SM CLR 27/19 A3006 RMK AO2 T02710188
KRCZ 191355Z AUTO 10008KT 10SM CLR 27/19 A3006 RMK AO2 T02680190
KRCZ 191335Z AUTO 08007KT 10SM CLR 26/20 A3006 RMK AO2 T02610195
KRCZ 191315Z AUTO 07003KT 10SM CLR 26/20 A3006 RMK AO2 T02560202
KRCZ 191235Z AUTO 05004KT 10SM CLR 24/19 A3005 RMK AO2 T02370188
KRCZ 191215Z AUTO 04005KT 10SM CLR 23/18 A3005 RMK AO2 T02280180
KRCZ 191155Z AUTO 04004KT 10SM CLR 22/18 A3004 RMK AO2 T02200175 10225 20204
KRCZ 191035Z AUTO 05003KT 10SM CLR 21/17 A3001 RMK AO2 T02050169
KRCZ 191015Z AUTO 04004KT 10SM CLR 21/17 A3000 RMK AO2 T02070169
KRCZ 190955Z AUTO 04004KT 10SM CLR 21/17 A3000 RMK AO2 T02090170
KRCZ 190935Z AUTO 05003KT 10SM CLR 21/17 A3000 RMK AO2 T02090170
KRCZ 190915Z AUTO 04004KT 10SM CLR 21/17 A2999 RMK AO2 T02110171
KRCZ 190855Z AUTO 04004KT 10SM CLR 21/17 A3000 RMK AO2 T02140172